sensor_id;sensor_type;location;lat;lon;timestamp;temperature;humidity
46784;DHT22;32544;52.832;13.816;2022-12-18T00:00:42;22.10;46.60
46784;DHT22;32544;52.832;13.816;2022-12-18T00:01:43;22.00;46.60
46784;DHT22;32544;52.832;13.816;2022-12-18T00:02:44;22.00;46.50
46784;DHT22;32544;52.832;13.816;2022-12-18T00:03:44;22.10;46.60
46784;DHT22;32544;52.832;13.816;2022-12-18T00:04:45;22.10;46.50
46784;DHT22;32544;52.832;13.816;2022-12-18T00:05:52;22.10;46.60
46784;DHT22;32544;52.832;13.816;2022-12-18T00:06:53;22.10;46.50
46784;DHT22;32544;52.832;13.816;2022-12-18T00:07:53;22.10;46.50
46784;DHT22;32544;52.832;13.816;2022-12-18T00:08:55;22.00;46.50
46784;DHT22;32544;52.832;13.816;2022-12-18T00:09:56;22.00;46.50
46784;DHT22;32544;52.832;13.816;2022-12-18T00:11:03;22.00;46.50
46784;DHT22;32544;52.832;13.816;2022-12-18T00:12:03;22.00;46.50
46784;DHT22;32544;52.832;13.816;2022-12-18T00:13:04;22.00;46.40
46784;DHT22;32544;52.832;13.816;2022-12-18T00:14:05;22.00;46.40
46784;DHT22;32544;52.832;13.816;2022-12-18T00:15:05;22.00;46.40
46784;DHT22;32544;52.832;13.816;2022-12-18T00:16:07;22.00;46.40
46784;DHT22;32544;52.832;13.816;2022-12-18T00:17:08;22.00;46.40
46784;DHT22;32544;52.832;13.816;2022-12-18T00:18:09;22.00;46.40
46784;DHT22;32544;52.832;13.816;2022-12-18T00:19:10;22.10;46.40
46784;DHT22;32544;52.832;13.816;2022-12-18T00:20:11;22.00;46.40
46784;DHT22;32544;52.832;13.816;2022-12-18T00:21:11;22.00;46.40
46784;DHT22;32544;52.832;13.816;2022-12-18T00:22:12;22.10;46.40
46784;DHT22;32544;52.832;13.816;2022-12-18T00:23:13;22.10;46.40
46784;DHT22;32544;52.832;13.816;2022-12-18T00:24:14;22.10;46.40
46784;DHT22;32544;52.832;13.816;2022-12-18T00:25:14;22.10;46.40
46784;DHT22;32544;52.832;13.816;2022-12-18T00:26:16;22.10;46.40
46784;DHT22;32544;52.832;13.816;2022-12-18T00:27:17;22.10;46.40
46784;DHT22;32544;52.832;13.816;2022-12-18T00:28:17;22.10;46.40
46784;DHT22;32544;52.832;13.816;2022-12-18T00:29:18;22.10;46.30
46784;DHT22;32544;52.832;13.816;2022-12-18T00:30:19;22.10;46.30
46784;DHT22;32544;52.832;13.816;2022-12-18T00:31:21;22.10;46.30
46784;DHT22;32544;52.832;13.816;2022-12-18T00:32:21;22.10;46.20
46784;DHT22;32544;52.832;13.816;2022-12-18T00:33:22;22.10;46.20
46784;DHT22;32544;52.832;13.816;2022-12-18T00:34:23;22.10;46.20
46784;DHT22;32544;52.832;13.816;2022-12-18T00:35:23;22.10;46.20
46784;DHT22;32544;52.832;13.816;2022-12-18T00:36:25;22.10;46.10
46784;DHT22;32544;52.832;13.816;2022-12-18T00:37:26;22.10;46.10
46784;DHT22;32544;52.832;13.816;2022-12-18T00:38:26;22.10;46.10
46784;DHT22;32544;52.832;13.816;2022-12-18T00:39:27;22.10;46.10
46784;DHT22;32544;52.832;13.816;2022-12-18T00:40:27;22.20;46.20
46784;DHT22;32544;52.832;13.816;2022-12-18T00:41:28;22.10;46.00
46784;DHT22;32544;52.832;13.816;2022-12-18T00:42:47;22.20;46.10
46784;DHT22;32544;52.832;13.816;2022-12-18T00:43:57;22.10;46.00
46784;DHT22;32544;52.832;13.816;2022-12-18T00:44:58;22.10;46.00
46784;DHT22;32544;52.832;13.816;2022-12-18T00:45:58;22.20;46.10
46784;DHT22;32544;52.832;13.816;2022-12-18T00:46:59;22.10;46.00
46784;DHT22;32544;52.832;13.816;2022-12-18T00:48:00;22.10;46.00
46784;DHT22;32544;52.832;13.816;2022-12-18T00:49:01;22.10;46.00
46784;DHT22;32544;52.832;13.816;2022-12-18T00:50:01;22.20;46.70
46784;DHT22;32544;52.832;13.816;2022-12-18T00:51:02;22.10;45.90
46784;DHT22;32544;52.832;13.816;2022-12-18T00:52:03;22.10;45.90
46784;DHT22;32544;52.832;13.816;2022-12-18T00:53:03;22.10;45.90
46784;DHT22;32544;52.832;13.816;2022-12-18T00:54:04;22.10;45.90
46784;DHT22;32544;52.832;13.816;2022-12-18T00:55:05;22.10;45.90
46784;DHT22;32544;52.832;13.816;2022-12-18T00:56:06;22.20;45.90
46784;DHT22;32544;52.832;13.816;2022-12-18T00:57:06;22.20;45.90
46784;DHT22;32544;52.832;13.816;2022-12-18T00:58:07;22.20;45.90
46784;DHT22;32544;52.832;13.816;2022-12-18T00:59:09;22.20;45.90
46784;DHT22;32544;52.832;13.816;2022-12-18T01:00:11;22.10;45.80
46784;DHT22;32544;52.832;13.816;2022-12-18T01:01:12;22.10;45.80
46784;DHT22;32544;52.832;13.816;2022-12-18T01:02:13;22.20;45.90
46784;DHT22;32544;52.832;13.816;2022-12-18T01:03:13;22.20;45.90
46784;DHT22;32544;52.832;13.816;2022-12-18T01:04:14;22.20;45.80
46784;DHT22;32544;52.832;13.816;2022-12-18T01:05:15;22.20;45.80
46784;DHT22;32544;52.832;13.816;2022-12-18T01:06:16;22.20;45.90
46784;DHT22;32544;52.832;13.816;2022-12-18T01:07:16;22.10;45.70
46784;DHT22;32544;52.832;13.816;2022-12-18T01:08:17;22.10;45.70
46784;DHT22;32544;52.832;13.816;2022-12-18T01:09:18;22.20;45.80
46784;DHT22;32544;52.832;13.816;2022-12-18T01:10:19;22.20;45.80
46784;DHT22;32544;52.832;13.816;2022-12-18T01:11:19;22.20;45.80
46784;DHT22;32544;52.832;13.816;2022-12-18T01:12:20;22.20;45.80
46784;DHT22;32544;52.832;13.816;2022-12-18T01:13:24;22.20;45.80
46784;DHT22;32544;52.832;13.816;2022-12-18T01:14:25;22.20;45.70
46784;DHT22;32544;52.832;13.816;2022-12-18T01:15:27;22.20;45.80
46784;DHT22;32544;52.832;13.816;2022-12-18T01:16:27;22.10;45.70
46784;DHT22;32544;52.832;13.816;2022-12-18T01:17:28;22.20;45.70
46784;DHT22;32544;52.832;13.816;2022-12-18T01:18:28;22.20;45.70
46784;DHT22;32544;52.832;13.816;2022-12-18T01:19:29;22.10;45.60
46784;DHT22;32544;52.832;13.816;2022-12-18T01:20:29;22.10;45.70
46784;DHT22;32544;52.832;13.816;2022-12-18T01:21:30;22.20;45.70
46784;DHT22;32544;52.832;13.816;2022-12-18T01:22:34;22.20;45.70
46784;DHT22;32544;52.832;13.816;2022-12-18T01:23:34;22.10;45.70
46784;DHT22;32544;52.832;13.816;2022-12-18T01:24:35;22.10;46.30
46784;DHT22;32544;52.832;13.816;2022-12-18T01:25:36;22.10;45.60
46784;DHT22;32544;52.832;13.816;2022-12-18T01:26:36;22.20;45.70
46784;DHT22;32544;52.832;13.816;2022-12-18T01:27:37;22.10;45.70
46784;DHT22;32544;52.832;13.816;2022-12-18T01:28:38;22.20;45.70
46784;DHT22;32544;52.832;13.816;2022-12-18T01:29:39;22.10;45.60
46784;DHT22;32544;52.832;13.816;2022-12-18T01:30:39;22.10;45.60
46784;DHT22;32544;52.832;13.816;2022-12-18T01:31:40;22.10;45.60
46784;DHT22;32544;52.832;13.816;2022-12-18T01:32:40;22.20;45.70
46784;DHT22;32544;52.832;13.816;2022-12-18T01:33:41;22.10;45.60
46784;DHT22;32544;52.832;13.816;2022-12-18T01:34:42;22.20;45.70
46784;DHT22;32544;52.832;13.816;2022-12-18T01:35:43;22.10;45.60
46784;DHT22;32544;52.832;13.816;2022-12-18T01:36:44;22.10;45.60
46784;DHT22;32544;52.832;13.816;2022-12-18T01:37:44;22.10;45.60
46784;DHT22;32544;52.832;13.816;2022-12-18T01:38:45;22.10;45.60
46784;DHT22;32544;52.832;13.816;2022-12-18T01:39:46;22.10;45.50
46784;DHT22;32544;52.832;13.816;2022-12-18T01:40:47;22.10;45.60
46784;DHT22;32544;52.832;13.816;2022-12-18T01:41:47;22.10;45.60
46784;DHT22;32544;52.832;13.816;2022-12-18T01:43:03;22.20;45.60
46784;DHT22;32544;52.832;13.816;2022-12-18T01:44:46;22.10;45.60
46784;DHT22;32544;52.832;13.816;2022-12-18T01:45:26;22.10;45.60
46784;DHT22;32544;52.832;13.816;2022-12-18T01:46:27;22.20;45.60
46784;DHT22;32544;52.832;13.816;2022-12-18T01:48:30;22.10;45.60
46784;DHT22;32544;52.832;13.816;2022-12-18T01:49:32;22.10;45.40
46784;DHT22;32544;52.832;13.816;2022-12-18T01:50:39;22.10;45.40
46784;DHT22;32544;52.832;13.816;2022-12-18T01:51:40;22.10;45.50
46784;DHT22;32544;52.832;13.816;2022-12-18T01:53:26;22.10;45.40
46784;DHT22;32544;52.832;13.816;2022-12-18T01:54:01;22.10;45.40
46784;DHT22;32544;52.832;13.816;2022-12-18T01:55:03;22.10;45.50
46784;DHT22;32544;52.832;13.816;2022-12-18T01:56:05;22.10;45.50
46784;DHT22;32544;52.832;13.816;2022-12-18T01:57:06;22.10;45.50
46784;DHT22;32544;52.832;13.816;2022-12-18T01:58:06;22.10;45.50
46784;DHT22;32544;52.832;13.816;2022-12-18T01:59:08;22.10;45.40
46784;DHT22;32544;52.832;13.816;2022-12-18T02:00:12;22.10;45.50
46784;DHT22;32544;52.832;13.816;2022-12-18T02:01:13;22.10;45.50
46784;DHT22;32544;52.832;13.816;2022-12-18T02:02:14;22.10;45.50
46784;DHT22;32544;52.832;13.816;2022-12-18T02:03:15;22.10;45.50
46784;DHT22;32544;52.832;13.816;2022-12-18T02:04:23;22.10;45.50
46784;DHT22;32544;52.832;13.816;2022-12-18T02:06:34;22.00;45.50
46784;DHT22;32544;52.832;13.816;2022-12-18T02:07:41;22.10;45.50
46784;DHT22;32544;52.832;13.816;2022-12-18T02:08:50;22.00;45.50
46784;DHT22;32544;52.832;13.816;2022-12-18T02:09:56;22.10;45.60
46784;DHT22;32544;52.832;13.816;2022-12-18T02:12:09;22.00;45.60
46784;DHT22;32544;52.832;13.816;2022-12-18T02:13:22;22.00;45.50
46784;DHT22;32544;52.832;13.816;2022-12-18T02:14:30;22.00;45.60
46784;DHT22;32544;52.832;13.816;2022-12-18T02:15:40;22.10;45.60
46784;DHT22;32544;52.832;13.816;2022-12-18T02:19:37;22.10;45.60
46784;DHT22;32544;52.832;13.816;2022-12-18T02:20:49;22.10;45.60
46784;DHT22;32544;52.832;13.816;2022-12-18T02:26:30;22.10;45.40
46784;DHT22;32544;52.832;13.816;2022-12-18T02:27:34;22.10;45.40
46784;DHT22;32544;52.832;13.816;2022-12-18T02:28:42;22.10;45.40
46784;DHT22;32544;52.832;13.816;2022-12-18T02:29:50;22.20;45.40
46784;DHT22;32544;52.832;13.816;2022-12-18T02:30:52;22.20;45.40
46784;DHT22;32544;52.832;13.816;2022-12-18T02:31:54;22.20;45.40
46784;DHT22;32544;52.832;13.816;2022-12-18T02:32:56;22.20;45.30
46784;DHT22;32544;52.832;13.816;2022-12-18T02:33:58;22.20;45.30
46784;DHT22;32544;52.832;13.816;2022-12-18T02:35:02;22.20;45.30
46784;DHT22;32544;52.832;13.816;2022-12-18T02:36:04;22.30;45.30
46784;DHT22;32544;52.832;13.816;2022-12-18T02:37:07;22.20;45.30
46784;DHT22;32544;52.832;13.816;2022-12-18T02:38:10;22.20;45.20
46784;DHT22;32544;52.832;13.816;2022-12-18T02:39:13;22.20;45.20
46784;DHT22;32544;52.832;13.816;2022-12-18T02:40:21;22.20;45.20
46784;DHT22;32544;52.832;13.816;2022-12-18T02:41:25;22.30;45.30
46784;DHT22;32544;52.832;13.816;2022-12-18T02:42:26;22.30;45.20
46784;DHT22;32544;52.832;13.816;2022-12-18T02:43:28;22.30;45.20
46784;DHT22;32544;52.832;13.816;2022-12-18T02:44:30;22.30;45.20
46784;DHT22;32544;52.832;13.816;2022-12-18T02:45:31;22.30;45.10
46784;DHT22;32544;52.832;13.816;2022-12-18T02:46:33;22.30;45.10
46784;DHT22;32544;52.832;13.816;2022-12-18T02:47:40;22.30;45.10
46784;DHT22;32544;52.832;13.816;2022-12-18T02:48:42;22.30;45.10
46784;DHT22;32544;52.832;13.816;2022-12-18T02:50:51;22.30;45.00
46784;DHT22;32544;52.832;13.816;2022-12-18T02:55:08;22.30;45.00
46784;DHT22;32544;52.832;13.816;2022-12-18T02:56:18;22.30;45.10
46784;DHT22;32544;52.832;13.816;2022-12-18T03:00:30;22.30;45.10
46784;DHT22;32544;52.832;13.816;2022-12-18T03:02:20;22.30;45.00
46784;DHT22;32544;52.832;13.816;2022-12-18T03:04:34;22.30;45.00
46784;DHT22;32544;52.832;13.816;2022-12-18T03:05:45;22.30;45.00
46784;DHT22;32544;52.832;13.816;2022-12-18T03:06:51;22.30;45.00
46784;DHT22;32544;52.832;13.816;2022-12-18T03:07:56;22.30;45.00
46784;DHT22;32544;52.832;13.816;2022-12-18T03:08:59;22.30;45.00
46784;DHT22;32544;52.832;13.816;2022-12-18T03:10:02;22.20;45.00
46784;DHT22;32544;52.832;13.816;2022-12-18T03:11:05;22.20;45.00
46784;DHT22;32544;52.832;13.816;2022-12-18T03:12:15;22.20;45.00
46784;DHT22;32544;52.832;13.816;2022-12-18T03:13:25;22.30;45.10
46784;DHT22;32544;52.832;13.816;2022-12-18T03:14:28;22.20;45.00
46784;DHT22;32544;52.832;13.816;2022-12-18T03:15:35;22.20;45.00
46784;DHT22;32544;52.832;13.816;2022-12-18T03:16:42;22.20;45.00
46784;DHT22;32544;52.832;13.816;2022-12-18T03:17:46;22.20;45.00
46784;DHT22;32544;52.832;13.816;2022-12-18T03:18:49;22.20;45.00
46784;DHT22;32544;52.832;13.816;2022-12-18T03:19:51;22.20;45.00
46784;DHT22;32544;52.832;13.816;2022-12-18T03:20:53;22.30;45.10
46784;DHT22;32544;52.832;13.816;2022-12-18T03:21:56;22.30;45.10
46784;DHT22;32544;52.832;13.816;2022-12-18T03:23:21;22.20;45.10
46784;DHT22;32544;52.832;13.816;2022-12-18T03:24:22;22.20;45.00
46784;DHT22;32544;52.832;13.816;2022-12-18T03:25:25;22.20;45.00
46784;DHT22;32544;52.832;13.816;2022-12-18T03:26:28;22.10;45.00
46784;DHT22;32544;52.832;13.816;2022-12-18T03:27:33;22.20;45.00
46784;DHT22;32544;52.832;13.816;2022-12-18T03:28:42;22.20;45.00
46784;DHT22;32544;52.832;13.816;2022-12-18T03:29:46;22.20;45.00
46784;DHT22;32544;52.832;13.816;2022-12-18T03:30:50;22.20;45.00
46784;DHT22;32544;52.832;13.816;2022-12-18T03:31:58;22.20;45.10
46784;DHT22;32544;52.832;13.816;2022-12-18T03:34:13;22.20;45.10
46784;DHT22;32544;52.832;13.816;2022-12-18T03:35:19;22.20;45.60
46784;DHT22;32544;52.832;13.816;2022-12-18T03:36:21;22.20;45.10
46784;DHT22;32544;52.832;13.816;2022-12-18T03:37:24;22.10;45.10
46784;DHT22;32544;52.832;13.816;2022-12-18T03:38:26;22.10;45.10
46784;DHT22;32544;52.832;13.816;2022-12-18T03:39:28;22.10;45.00
46784;DHT22;32544;52.832;13.816;2022-12-18T03:40:35;22.10;45.00
46784;DHT22;32544;52.832;13.816;2022-12-18T03:41:43;22.10;45.10
46784;DHT22;32544;52.832;13.816;2022-12-18T03:44:17;22.10;45.00
46784;DHT22;32544;52.832;13.816;2022-12-18T03:44:50;22.20;45.10
46784;DHT22;32544;52.832;13.816;2022-12-18T03:45:54;22.10;45.00
46784;DHT22;32544;52.832;13.816;2022-12-18T03:46:58;22.20;45.10
46784;DHT22;32544;52.832;13.816;2022-12-18T03:49:08;22.10;45.10
46784;DHT22;32544;52.832;13.816;2022-12-18T03:50:14;22.20;45.00
46784;DHT22;32544;52.832;13.816;2022-12-18T03:51:23;22.10;45.00
46784;DHT22;32544;52.832;13.816;2022-12-18T03:53:41;22.10;45.00
46784;DHT22;32544;52.832;13.816;2022-12-18T03:54:45;22.10;45.00
46784;DHT22;32544;52.832;13.816;2022-12-18T03:55:49;22.20;45.00
46784;DHT22;32544;52.832;13.816;2022-12-18T03:56:53;22.20;45.10
46784;DHT22;32544;52.832;13.816;2022-12-18T03:57:56;22.10;45.00
46784;DHT22;32544;52.832;13.816;2022-12-18T03:58:59;22.10;45.00
46784;DHT22;32544;52.832;13.816;2022-12-18T04:01:14;22.20;45.00
46784;DHT22;32544;52.832;13.816;2022-12-18T04:02:17;22.20;45.00
46784;DHT22;32544;52.832;13.816;2022-12-18T04:03:19;22.20;45.00
46784;DHT22;32544;52.832;13.816;2022-12-18T04:04:21;22.20;45.00
46784;DHT22;32544;52.832;13.816;2022-12-18T04:05:22;22.20;44.90
46784;DHT22;32544;52.832;13.816;2022-12-18T04:06:24;22.20;45.00
46784;DHT22;32544;52.832;13.816;2022-12-18T04:07:25;22.20;44.90
46784;DHT22;32544;52.832;13.816;2022-12-18T04:08:27;22.20;44.90
46784;DHT22;32544;52.832;13.816;2022-12-18T04:09:36;22.20;44.90
46784;DHT22;32544;52.832;13.816;2022-12-18T04:10:39;22.20;44.90
46784;DHT22;32544;52.832;13.816;2022-12-18T04:11:40;22.20;44.90
46784;DHT22;32544;52.832;13.816;2022-12-18T04:12:41;22.20;45.10
46784;DHT22;32544;52.832;13.816;2022-12-18T04:13:44;22.20;44.90
46784;DHT22;32544;52.832;13.816;2022-12-18T04:14:53;22.20;44.90
46784;DHT22;32544;52.832;13.816;2022-12-18T04:15:53;22.20;44.80
46784;DHT22;32544;52.832;13.816;2022-12-18T04:16:56;22.20;44.90
46784;DHT22;32544;52.832;13.816;2022-12-18T04:18:03;22.20;44.80
46784;DHT22;32544;52.832;13.816;2022-12-18T04:19:11;22.20;44.90
46784;DHT22;32544;52.832;13.816;2022-12-18T04:20:14;22.20;44.80
46784;DHT22;32544;52.832;13.816;2022-12-18T04:21:17;22.30;44.90
46784;DHT22;32544;52.832;13.816;2022-12-18T04:22:18;22.20;44.80
46784;DHT22;32544;52.832;13.816;2022-12-18T04:23:22;22.20;44.80
46784;DHT22;32544;52.832;13.816;2022-12-18T04:24:22;22.20;44.70
46784;DHT22;32544;52.832;13.816;2022-12-18T04:25:36;22.20;44.80
46784;DHT22;32544;52.832;13.816;2022-12-18T04:26:44;22.30;44.80
46784;DHT22;32544;52.832;13.816;2022-12-18T04:27:51;22.30;44.80
46784;DHT22;32544;52.832;13.816;2022-12-18T04:28:52;22.30;44.80
46784;DHT22;32544;52.832;13.816;2022-12-18T04:29:52;22.20;44.70
46784;DHT22;32544;52.832;13.816;2022-12-18T04:30:53;22.30;44.80
46784;DHT22;32544;52.832;13.816;2022-12-18T04:31:55;22.20;44.70
46784;DHT22;32544;52.832;13.816;2022-12-18T04:32:57;22.30;44.80
46784;DHT22;32544;52.832;13.816;2022-12-18T04:33:58;22.20;44.80
46784;DHT22;32544;52.832;13.816;2022-12-18T04:34:59;22.20;44.80
46784;DHT22;32544;52.832;13.816;2022-12-18T04:36:00;22.20;44.70
46784;DHT22;32544;52.832;13.816;2022-12-18T04:37:00;22.20;44.80
46784;DHT22;32544;52.832;13.816;2022-12-18T04:38:01;22.20;44.80
46784;DHT22;32544;52.832;13.816;2022-12-18T04:39:01;22.30;44.80
46784;DHT22;32544;52.832;13.816;2022-12-18T04:40:02;22.20;44.80
46784;DHT22;32544;52.832;13.816;2022-12-18T04:41:14;22.20;44.80
46784;DHT22;32544;52.832;13.816;2022-12-18T04:42:16;22.20;44.90
46784;DHT22;32544;52.832;13.816;2022-12-18T04:43:16;22.20;44.80
46784;DHT22;32544;52.832;13.816;2022-12-18T04:44:17;22.20;44.90
46784;DHT22;32544;52.832;13.816;2022-12-18T04:45:17;22.20;44.90
46784;DHT22;32544;52.832;13.816;2022-12-18T04:46:19;22.20;44.80
46784;DHT22;32544;52.832;13.816;2022-12-18T04:47:19;22.20;44.90
46784;DHT22;32544;52.832;13.816;2022-12-18T04:48:20;22.10;44.80
46784;DHT22;32544;52.832;13.816;2022-12-18T04:49:21;22.20;44.90
46784;DHT22;32544;52.832;13.816;2022-12-18T04:50:21;22.20;44.90
46784;DHT22;32544;52.832;13.816;2022-12-18T04:51:22;22.10;44.80
46784;DHT22;32544;52.832;13.816;2022-12-18T04:52:23;22.20;44.80
46784;DHT22;32544;52.832;13.816;2022-12-18T04:53:23;22.20;44.80
46784;DHT22;32544;52.832;13.816;2022-12-18T04:54:24;22.10;44.80
46784;DHT22;32544;52.832;13.816;2022-12-18T04:55:24;22.10;44.80
46784;DHT22;32544;52.832;13.816;2022-12-18T04:56:25;22.10;44.90
46784;DHT22;32544;52.832;13.816;2022-12-18T04:57:26;22.10;44.80
46784;DHT22;32544;52.832;13.816;2022-12-18T04:58:26;22.10;44.80
46784;DHT22;32544;52.832;13.816;2022-12-18T04:59:27;22.00;44.80
46784;DHT22;32544;52.832;13.816;2022-12-18T05:00:27;22.10;44.90
46784;DHT22;32544;52.832;13.816;2022-12-18T05:01:28;22.00;44.70
46784;DHT22;32544;52.832;13.816;2022-12-18T05:02:29;22.10;44.70
46784;DHT22;32544;52.832;13.816;2022-12-18T05:03:29;22.10;44.70
46784;DHT22;32544;52.832;13.816;2022-12-18T05:04:30;22.00;44.60
46784;DHT22;32544;52.832;13.816;2022-12-18T05:05:30;22.10;44.80
46784;DHT22;32544;52.832;13.816;2022-12-18T05:06:31;22.00;44.70
46784;DHT22;32544;52.832;13.816;2022-12-18T05:07:32;22.00;44.70
46784;DHT22;32544;52.832;13.816;2022-12-18T05:08:32;22.00;44.60
46784;DHT22;32544;52.832;13.816;2022-12-18T05:09:33;22.00;44.80
46784;DHT22;32544;52.832;13.816;2022-12-18T05:10:33;22.00;44.80
46784;DHT22;32544;52.832;13.816;2022-12-18T05:11:37;22.00;44.80
46784;DHT22;32544;52.832;13.816;2022-12-18T05:12:37;22.00;44.70
46784;DHT22;32544;52.832;13.816;2022-12-18T05:13:58;22.00;44.80
46784;DHT22;32544;52.832;13.816;2022-12-18T05:14:58;21.90;44.70
46784;DHT22;32544;52.832;13.816;2022-12-18T05:15:59;22.00;44.70
46784;DHT22;32544;52.832;13.816;2022-12-18T05:17:00;22.00;44.80
46784;DHT22;32544;52.832;13.816;2022-12-18T05:18:01;21.90;44.90
46784;DHT22;32544;52.832;13.816;2022-12-18T05:19:02;21.90;44.80
46784;DHT22;32544;52.832;13.816;2022-12-18T05:20:02;21.90;44.90
46784;DHT22;32544;52.832;13.816;2022-12-18T05:21:03;21.90;44.90
46784;DHT22;32544;52.832;13.816;2022-12-18T05:22:04;21.90;44.80
46784;DHT22;32544;52.832;13.816;2022-12-18T05:23:04;21.90;44.80
46784;DHT22;32544;52.832;13.816;2022-12-18T05:24:05;21.90;44.90
46784;DHT22;32544;52.832;13.816;2022-12-18T05:25:06;21.90;44.90
46784;DHT22;32544;52.832;13.816;2022-12-18T05:26:06;21.90;44.90
46784;DHT22;32544;52.832;13.816;2022-12-18T05:27:08;21.90;44.90
46784;DHT22;32544;52.832;13.816;2022-12-18T05:28:08;21.80;44.90
46784;DHT22;32544;52.832;13.816;2022-12-18T05:29:09;21.90;45.00
46784;DHT22;32544;52.832;13.816;2022-12-18T05:30:13;21.80;44.90
46784;DHT22;32544;52.832;13.816;2022-12-18T05:31:14;21.90;45.00
46784;DHT22;32544;52.832;13.816;2022-12-18T05:32:15;21.90;45.10
46784;DHT22;32544;52.832;13.816;2022-12-18T05:33:15;21.90;45.10
46784;DHT22;32544;52.832;13.816;2022-12-18T05:34:16;21.90;45.10
46784;DHT22;32544;52.832;13.816;2022-12-18T05:35:17;21.90;45.00
46784;DHT22;32544;52.832;13.816;2022-12-18T05:36:17;21.90;45.00
46784;DHT22;32544;52.832;13.816;2022-12-18T05:37:18;21.90;44.90
46784;DHT22;32544;52.832;13.816;2022-12-18T05:38:19;21.90;45.00
46784;DHT22;32544;52.832;13.816;2022-12-18T05:39:19;21.90;45.00
46784;DHT22;32544;52.832;13.816;2022-12-18T05:40:20;21.90;45.00
46784;DHT22;32544;52.832;13.816;2022-12-18T05:41:20;21.90;44.90
46784;DHT22;32544;52.832;13.816;2022-12-18T05:42:21;21.90;44.90
46784;DHT22;32544;52.832;13.816;2022-12-18T05:43:22;21.90;45.00
46784;DHT22;32544;52.832;13.816;2022-12-18T05:44:23;21.80;44.90
46784;DHT22;32544;52.832;13.816;2022-12-18T05:45:23;21.80;45.00
46784;DHT22;32544;52.832;13.816;2022-12-18T05:46:24;21.90;45.10
46784;DHT22;32544;52.832;13.816;2022-12-18T05:47:25;21.90;45.00
46784;DHT22;32544;52.832;13.816;2022-12-18T05:48:26;21.90;45.10
46784;DHT22;32544;52.832;13.816;2022-12-18T05:49:27;21.80;45.00
46784;DHT22;32544;52.832;13.816;2022-12-18T05:50:27;21.80;45.00
46784;DHT22;32544;52.832;13.816;2022-12-18T05:51:34;21.90;45.10
46784;DHT22;32544;52.832;13.816;2022-12-18T05:52:35;21.90;45.10
46784;DHT22;32544;52.832;13.816;2022-12-18T05:53:36;21.90;45.20
46784;DHT22;32544;52.832;13.816;2022-12-18T05:54:37;21.80;45.00
46784;DHT22;32544;52.832;13.816;2022-12-18T05:55:38;21.90;45.10
46784;DHT22;32544;52.832;13.816;2022-12-18T05:56:39;21.90;45.00
46784;DHT22;32544;52.832;13.816;2022-12-18T05:57:39;21.80;45.10
46784;DHT22;32544;52.832;13.816;2022-12-18T05:58:40;21.90;45.10
46784;DHT22;32544;52.832;13.816;2022-12-18T05:59:41;21.90;45.20
46784;DHT22;32544;52.832;13.816;2022-12-18T06:00:42;21.90;45.10
46784;DHT22;32544;52.832;13.816;2022-12-18T06:01:43;21.90;45.10
46784;DHT22;32544;52.832;13.816;2022-12-18T06:02:46;21.90;45.10
46784;DHT22;32544;52.832;13.816;2022-12-18T06:03:46;22.00;45.10
46784;DHT22;32544;52.832;13.816;2022-12-18T06:04:47;22.00;45.10
46784;DHT22;32544;52.832;13.816;2022-12-18T06:05:48;22.00;45.10
46784;DHT22;32544;52.832;13.816;2022-12-18T06:06:48;22.00;45.00
46784;DHT22;32544;52.832;13.816;2022-12-18T06:07:49;22.00;45.00
46784;DHT22;32544;52.832;13.816;2022-12-18T06:08:50;22.00;44.90
46784;DHT22;32544;52.832;13.816;2022-12-18T06:09:50;22.00;44.90
46784;DHT22;32544;52.832;13.816;2022-12-18T06:10:51;22.00;44.90
46784;DHT22;32544;52.832;13.816;2022-12-18T06:11:55;22.10;44.90
46784;DHT22;32544;52.832;13.816;2022-12-18T06:12:55;22.00;44.80
46784;DHT22;32544;52.832;13.816;2022-12-18T06:13:56;22.10;44.80
46784;DHT22;32544;52.832;13.816;2022-12-18T06:14:57;22.10;44.80
46784;DHT22;32544;52.832;13.816;2022-12-18T06:15:57;22.10;44.80
46784;DHT22;32544;52.832;13.816;2022-12-18T06:16:58;22.10;44.80
46784;DHT22;32544;52.832;13.816;2022-12-18T06:18:00;22.20;44.80
46784;DHT22;32544;52.832;13.816;2022-12-18T06:19:02;22.10;44.70
46784;DHT22;32544;52.832;13.816;2022-12-18T06:20:03;22.10;44.70
46784;DHT22;32544;52.832;13.816;2022-12-18T06:21:04;22.10;44.60
46784;DHT22;32544;52.832;13.816;2022-12-18T06:22:05;22.20;44.80
46784;DHT22;32544;52.832;13.816;2022-12-18T06:23:05;22.10;44.70
46784;DHT22;32544;52.832;13.816;2022-12-18T06:24:06;22.10;44.20
46784;DHT22;32544;52.832;13.816;2022-12-18T06:25:07;22.10;44.20
46784;DHT22;32544;52.832;13.816;2022-12-18T06:26:09;22.10;44.00
46784;DHT22;32544;52.832;13.816;2022-12-18T06:27:09;22.10;43.60
46784;DHT22;32544;52.832;13.816;2022-12-18T06:28:10;22.10;43.20
46784;DHT22;32544;52.832;13.816;2022-12-18T06:29:11;22.00;43.40
46784;DHT22;32544;52.832;13.816;2022-12-18T06:30:11;22.00;43.10
46784;DHT22;32544;52.832;13.816;2022-12-18T06:31:12;22.10;42.60
46784;DHT22;32544;52.832;13.816;2022-12-18T06:32:13;22.00;42.60
46784;DHT22;32544;52.832;13.816;2022-12-18T06:33:14;22.00;42.20
46784;DHT22;32544;52.832;13.816;2022-12-18T06:34:15;22.00;42.20
46784;DHT22;32544;52.832;13.816;2022-12-18T06:35:15;21.90;41.50
46784;DHT22;32544;52.832;13.816;2022-12-18T06:36:16;22.00;41.50
46784;DHT22;32544;52.832;13.816;2022-12-18T06:37:17;21.90;40.90
46784;DHT22;32544;52.832;13.816;2022-12-18T06:38:17;21.90;41.10
46784;DHT22;32544;52.832;13.816;2022-12-18T06:39:18;22.00;41.10
46784;DHT22;32544;52.832;13.816;2022-12-18T06:40:19;22.10;41.30
46784;DHT22;32544;52.832;13.816;2022-12-18T06:41:20;22.10;41.00
46784;DHT22;32544;52.832;13.816;2022-12-18T06:42:20;22.10;40.90
46784;DHT22;32544;52.832;13.816;2022-12-18T06:43:22;22.10;41.00
46784;DHT22;32544;52.832;13.816;2022-12-18T06:44:23;22.10;41.00
46784;DHT22;32544;52.832;13.816;2022-12-18T06:45:23;22.10;40.90
46784;DHT22;32544;52.832;13.816;2022-12-18T06:46:24;22.20;41.10
46784;DHT22;32544;52.832;13.816;2022-12-18T06:47:25;22.20;41.00
46784;DHT22;32544;52.832;13.816;2022-12-18T06:48:25;22.30;41.20
46784;DHT22;32544;52.832;13.816;2022-12-18T06:49:26;22.40;41.10
46784;DHT22;32544;52.832;13.816;2022-12-18T06:50:26;22.40;41.20
46784;DHT22;32544;52.832;13.816;2022-12-18T06:51:27;22.40;41.30
46784;DHT22;32544;52.832;13.816;2022-12-18T06:52:28;22.50;41.20
46784;DHT22;32544;52.832;13.816;2022-12-18T06:53:28;22.50;41.30